createdAt,value
2023-03-23T15:58:13.141Z,1.20
2023-03-23T16:01:26.973Z,1.40
2023-03-23T16:04:33.581Z,1.33
2023-03-23T16:07:38.358Z,1.58
2023-03-23T16:10:43.563Z,1.25
2023-03-23T16:13:49.813Z,1.13
2023-03-23T16:16:54.548Z,1.33
2023-03-23T16:19:59.279Z,1.27
2023-03-23T16:23:03.831Z,2.03
2023-03-23T16:26:08.690Z,2.05
2023-03-23T16:29:28.427Z,1.90
2023-03-23T16:35:43.790Z,1.60
2023-03-23T16:38:49.020Z,1.52
2023-03-23T16:41:55.543Z,1.63
2023-03-23T16:45:01.046Z,1.50
2023-03-23T16:48:08.089Z,1.50
2023-03-23T16:51:12.604Z,1.45
2023-03-23T16:54:17.339Z,1.30
2023-03-23T16:57:22.062Z,1.30
2023-03-23T17:00:28.427Z,1.50
2023-03-23T17:03:33.037Z,1.27
2023-03-23T17:06:37.590Z,1.38
2023-03-23T17:09:42.733Z,1.67
2023-03-23T17:12:47.027Z,1.30
2023-03-23T17:15:54.613Z,2.15
2023-03-23T17:18:59.015Z,1.50
2023-03-23T17:22:06.835Z,1.52
2023-03-23T17:25:12.191Z,1.40
2023-03-23T17:28:19.442Z,1.45
2023-03-23T17:31:25.481Z,1.42
2023-03-23T17:34:29.927Z,1.90
2023-03-23T17:37:36.277Z,1.40
2023-03-23T17:40:40.871Z,2.28
2023-03-23T17:43:45.331Z,1.77
2023-03-23T17:46:50.351Z,1.65
2023-03-23T17:49:54.720Z,1.60
2023-03-23T17:53:01.492Z,1.40
2023-03-23T17:56:06.948Z,1.90
2023-03-23T17:59:12.552Z,1.50
2023-03-23T18:02:18.605Z,1.73
2023-03-23T18:05:24.502Z,1.95
2023-03-23T18:08:30.145Z,1.60
2023-03-23T18:11:34.897Z,1.70
2023-03-23T18:14:40.012Z,1.75
2023-03-23T18:17:50.757Z,2.20
2023-03-23T18:21:08.096Z,2.00
2023-03-23T18:24:13.750Z,1.90
2023-03-23T18:27:18.885Z,2.03
2023-03-23T18:30:23.841Z,1.83
2023-03-23T18:33:28.130Z,1.55
2023-03-23T18:36:33.225Z,1.75
2023-03-23T18:39:38.557Z,1.67
2023-03-23T18:42:44.967Z,1.42
2023-03-23T18:45:57.963Z,1.90
2023-03-23T18:49:03.231Z,1.88
2023-03-23T18:52:07.941Z,1.70
2023-03-23T18:55:12.609Z,1.45
2023-03-23T18:58:19.780Z,1.90
2023-03-23T19:01:24.453Z,1.80
2023-03-23T19:04:31.655Z,2.42
2023-03-23T19:07:38.413Z,2.33
2023-03-23T19:10:43.689Z,2.05
2023-03-23T19:14:00.360Z,1.88
2023-03-23T19:17:07.994Z,2.72
2023-03-23T19:20:17.428Z,2.20
2023-03-23T19:23:34.906Z,2.55
2023-03-23T19:26:44.803Z,2.17
2023-03-23T19:29:49.365Z,2.40
2023-03-23T19:32:54.246Z,3.20
2023-03-23T19:36:09.315Z,2.70
2023-03-23T19:39:17.869Z,2.33
2023-03-23T19:42:22.588Z,2.70
2023-03-23T19:45:27.570Z,2.55
2023-03-23T19:48:31.901Z,2.20
2023-03-23T19:51:36.704Z,2.40
2023-03-23T19:54:42.214Z,2.75
2023-03-23T19:57:50.575Z,2.20
2023-03-23T20:00:56.079Z,1.83
2023-03-23T20:04:04.913Z,2.65
2023-03-23T20:07:09.984Z,2.42
2023-03-23T20:10:15.128Z,2.70
2023-03-23T20:13:19.684Z,2.00
2023-03-23T20:16:25.618Z,2.30
2023-03-23T20:19:30.079Z,2.50
2023-03-23T20:22:36.462Z,3.50
2023-03-23T20:25:41.177Z,2.83
2023-03-23T20:28:47.655Z,2.53
2023-03-23T20:31:52.523Z,2.50
2023-03-23T20:34:57.098Z,2.38
2023-03-23T20:38:01.666Z,2.53
2023-03-23T20:41:12.094Z,2.50
2023-03-23T20:44:20.151Z,2.30
2023-03-23T20:47:24.760Z,2.15
2023-03-23T20:50:29.575Z,2.15
2023-03-23T20:53:35.418Z,2.25
2023-03-23T20:56:40.545Z,2.08
2023-03-23T20:59:45.787Z,2.80
2023-03-23T21:02:54.212Z,2.08
2023-03-23T21:05:59.244Z,2.40
2023-03-23T21:09:03.972Z,2.10
2023-03-23T21:12:09.913Z,2.38
2023-03-23T21:15:14.587Z,2.33
2023-03-23T21:18:19.205Z,2.22
2023-03-23T21:21:24.467Z,2.45
2023-03-23T21:24:31.391Z,2.42
2023-03-23T21:27:37.505Z,2.38
2023-03-23T21:30:45.716Z,2.30
2023-03-23T21:33:50.689Z,2.05
2023-03-23T21:36:55.510Z,2.35
2023-03-23T21:40:00.112Z,2.53
2023-03-23T21:43:04.705Z,2.47
2023-03-23T21:46:09.904Z,2.72
2023-03-23T21:49:14.547Z,2.15
2023-03-23T21:52:20.762Z,2.28
2023-03-23T21:55:25.559Z,2.40
2023-03-23T21:58:30.617Z,2.25
2023-03-23T22:01:37.049Z,2.70
2023-03-23T22:04:42.229Z,2.22
2023-03-23T22:07:47.763Z,2.00
2023-03-23T22:11:00.356Z,1.92
2023-03-23T22:14:06.676Z,2.22
2023-03-23T22:17:11.713Z,2.78
2023-03-23T22:20:17.395Z,2.33
2023-03-23T22:23:22.450Z,2.13
2023-03-23T22:26:28.472Z,2.22
2023-03-23T22:29:32.848Z,1.88
2023-03-23T22:32:37.266Z,2.10
2023-03-23T22:35:42.449Z,2.60
2023-03-23T22:38:48.546Z,2.50
2023-03-23T22:41:52.961Z,2.30
2023-03-23T22:44:57.790Z,2.05
2023-03-23T22:48:04.372Z,1.90
2023-03-23T22:51:10.619Z,1.83
2023-03-23T22:54:15.615Z,2.10
2023-03-23T22:57:19.866Z,2.00
2023-03-23T23:00:24.373Z,1.92
2023-03-23T23:03:31.157Z,2.20
2023-03-23T23:06:35.964Z,2.05
2023-03-23T23:09:42.512Z,1.83
2023-03-23T23:12:48.578Z,2.20
2023-03-23T23:15:58.112Z,1.70
2023-03-23T23:19:03.204Z,1.90
2023-03-23T23:22:18.501Z,2.08
2023-03-23T23:25:24.442Z,2.15
2023-03-23T23:28:29.569Z,2.22
2023-03-23T23:31:34.582Z,1.80
2023-03-23T23:34:39.086Z,1.90
2023-03-23T23:37:44.005Z,2.30
2023-03-23T23:40:48.678Z,1.92
2023-03-23T23:43:53.842Z,2.15
2023-03-23T23:46:58.346Z,2.25
2023-03-23T23:50:04.486Z,1.88
2023-03-23T23:53:10.901Z,2.00
2023-03-23T23:56:15.642Z,2.53
2023-03-23T23:59:20.718Z,2.28
